OSDI/DAM METAR and TAF weather

Enter ICAO airport designator
Station Type Date Time Source
OSDI METAR 2019/07/18 11:00 UTC NOAA

OSDI 181100Z 24020KT 9999 SCT030 33/09 Q1009


Station Type Date Time Source
OSDI Decoded METAR 2019/07/18 11:00 UTC NOAA

Damascus Int. Airport, Syria (OSDI) 33-25N 036-31E 609M
Jul 18, 2019 - 07:00 AM EDT / 2019.07.18 1100 UTC
Wind: from the WSW (240 degrees) at 23 MPH (20 KT):0
Visibility: greater than 7 mile(s):0
Sky conditions: partly cloudy
Temperature: 91 F (33 C)
Dew Point: 48 F (9 C)
Relative Humidity: 22%
Pressure (altimeter): 29.80 in. Hg (1009 hPa)
ob: OSDI 181100Z 24020KT 9999 SCT030 33/09 Q1009
cycle: 11

Station Type Date Time Source
OSDI TAF 2019/07/18 12:06 UTC NOAA

TAF OSDI 181100Z 1812/1924 22025KT 9999 FEW030

Example: see airport list